KBAB/BAB METAR and TAF weather

Enter ICAO airport designator
Station Type Date Time Source
KBAB METAR 2020/01/18 03:58 UTC NOAA

KBAB 180358Z AUTO 34005KT 8SM OVC130 06/05 A3032 RMK AO2 SLP271 T00590050 $


Station Type Date Time Source
KBAB Decoded METAR 2020/01/18 03:58 UTC NOAA

Marysville, Beale Air Force Base, CA, United States (KBAB) 39-08N 121-26W
Jan 17, 2020 - 10:58 PM EST / 2020.01.18 0358 UTC
Wind: from the NNW (340 degrees) at 6 MPH (5 KT):0
Visibility: 8 mile(s):0
Sky conditions: overcast
Temperature: 42.6 F (5.9 C)
Dew Point: 41.0 F (5.0 C)
Relative Humidity: 93%
Pressure (altimeter): 30.32 in. Hg (1026 hPa)
ob: KBAB 180358Z AUTO 34005KT 8SM OVC130 06/05 A3032 RMK AO2 SLP271 T00590050
cycle: 4

Station Type Date Time Source
KBAB TAF 2020/01/18 01:58 UTC NOAA

TAF
AMD KBAB 180100Z 1801/1901 VRB06KT 9999 SCT100 BKN120 QNH3028INS
BECMG 1802/1803 36009KT 9999 SCT100 BKN120 QNH3028INS
BECMG 1809/1810 VRB06KT 9999 SCT120 QNH3030INS
TEMPO 1810/1816 1600 BR
BECMG 1816/1817 33009KT 9999 FEW100 SCT180 QNH3029INS TX08/1801Z TN03/1815Z LAST NO
AMDS AFT 1801 NEXT 2114

Example: see airport list